Seaspan Champion — VDPS — position and weather

sailwx.info

Track history (hours):
 
Tides and Currents Weather Stations Pressure Air Temp Water Temp Dewpoint Dewpoint Depression Visibility Wind Speed Wind Dir Waves Ship Positions

Seaspan Champion

Last reported at 2016-May-04 18:34 UTC. Time now 2016-May-04 19:20 UTC.
Position N 49°11' W 122°55'.

Length 24 m; draft 5 m.

Type: Towing. MMSI: 316003661.

Date/timePositionNaut miles runAvg speedWind from/ knotsBaromVisibWave heightAir tempDewpointWater temp
2016-May-04 18:34N 49°11' W 122°55'1 1.0
2016-May-04 17:33N 49°12' W 122°55'2 1.6
2016-May-04 16:34N 49°10' W 122°55'0 0.0
2016-May-04 15:34N 49°10' W 122°55'0 0.0
2016-May-04 14:34N 49°10' W 122°55'0 0.0
2016-May-04 13:33N 49°10' W 122°55'0 0.0
2016-May-04 12:34N 49°10' W 122°55'0 0.0
2016-May-04 11:34N 49°10' W 122°55'0 0.0
2016-May-04 10:34N 49°10' W 122°55'0 0.0
2016-May-04 09:34N 49°10' W 122°55'0 0.0
2016-May-04 08:34N 49°10' W 122°55'2 2.0
2016-May-04 07:33N 49°09' W 122°58'6 5.7
2016-May-04 06:34N 49°07' W 123°06'6 5.9
2016-May-04 05:34N 49°07' W 123°15'3 3.4
2016-May-04 04:34N 49°10' W 123°19'6 6.0
2016-May-04 03:33N 49°16' W 123°19'4 4.5
2016-May-04 02:34N 49°17' W 123°26'3 3.5
2016-May-04 01:34N 49°19' W 123°31'8 7.3
2016-May-04 00:32N 49°21' W 123°41'8 8.0
2016-May-03 23:32N 49°25' W 123°52'7 7.6
2016-May-03 22:34N 49°28' W 124°02'8 7.7
2016-May-03 21:30N 49°35' W 124°10'7 7.6
2016-May-03 20:33N 49°40' W 124°18'7 7.1
2016-May-03 19:33N 49°45' W 124°25'7 6.8
2016-May-03 18:33N 49°50' W 124°33'3 2.7
2016-May-03 17:34N 49°52' W 124°34'2 1.6
2016-May-03 16:34N 49°51' W 124°33'4 3.8
2016-May-03 15:33N 49°47' W 124°31'4 4.1
2016-May-03 14:34N 49°45' W 124°25'4 4.2
2016-May-03 13:33N 49°43' W 124°20'4 3.7
2016-May-03 12:33N 49°40' W 124°16'5 4.6
2016-May-03 11:33N 49°37' W 124°11'5 4.9
2016-May-03 10:33N 49°33' W 124°06'5 5.2
2016-May-03 09:34N 49°29' W 124°01'5 5.4
2016-May-03 08:33N 49°26' W 123°54'5 5.3
2016-May-03 07:32N 49°23' W 123°47'5 4.9
2016-May-03 06:33N 49°21' W 123°40'5 4.8
2016-May-03 05:33N 49°18' W 123°35'5 4.7
2016-May-03 04:33N 49°15' W 123°29'5 4.9
2016-May-03 03:34N 49°11' W 123°25'5 4.5
2016-May-03 02:33N 49°08' W 123°20'3 3.3
2016-May-03 01:33N 49°08' W 123°15'7 6.6
2016-May-03 00:33N 49°07' W 123°05'6 6.1
2016-May-02 23:33N 49°10' W 122°57'3 2.9
2016-May-02 22:33N 49°12' W 122°54'1 1.2
2016-May-02 21:33N 49°11' W 122°55'1 0.8
2016-May-02 20:34N 49°10' W 122°55'0 0.0
2016-May-02 19:33N 49°10' W 122°55'2 2.0
2016-May-02 18:33N 49°09' W 122°58'8 7.7
2016-May-02 17:33N 49°07' W 123°09'2 1.7
2016-May-02 16:33N 49°07' W 123°11'0 0.0
2016-May-02 15:33N 49°07' W 123°11'0 0.0
2016-May-02 14:33N 49°07' W 123°11'5 5.2
2016-May-02 13:33N 49°08' W 123°04'4 3.9
2016-May-02 12:33N 49°10' W 122°58'0 0.0
2016-May-02 11:33N 49°10' W 122°58'0 0.0
2016-May-02 10:33N 49°10' W 122°58'0 0.0
2016-May-02 09:34N 49°10' W 122°58'3 2.5
2016-May-02 08:33N 49°09' W 123°02'7 6.9
2016-May-02 07:33N 49°07' W 123°12'5 4.8
2016-May-02 06:33N 49°08' W 123°19'8 7.7
2016-May-02 05:34N 49°16' W 123°18'4 3.8
2016-May-02 04:33N 49°17' W 123°24'7 7.2
2016-May-02 03:33N 49°20' W 123°34'8 7.5
2016-May-02 02:30N 49°23' W 123°45'7 7.2
2016-May-02 01:33N 49°26' W 123°55'7 7.4
2016-May-02 00:33N 49°30' W 124°05'8 8.0
2016-May-01 23:33N 49°36' W 124°12'8 7.9
2016-May-01 22:33N 49°42' W 124°20'8 7.6
2016-May-01 21:33N 49°47' W 124°29'6 6.0
2016-May-01 20:33N 49°52' W 124°34'1 1.2
2016-May-01 19:33N 49°51' W 124°33'5 4.8
2016-May-01 18:33N 49°47' W 124°30'5 4.9
2016-May-01 17:33N 49°44' W 124°23'5 5.0
2016-May-01 16:33N 49°41' W 124°17'5 4.8
2016-May-01 15:33N 49°38' W 124°12'5 4.7
2016-May-01 14:33N 49°34' W 124°07'5 4.7
2016-May-01 13:34N 49°30' W 124°03'5 4.9
2016-May-01 12:33N 49°27' W 123°57'5 4.8
2016-May-01 11:33N 49°25' W 123°51'5 4.8
2016-May-01 10:33N 49°24' W 123°44'5 4.6
2016-May-01 09:33N 49°22' W 123°37'5 5.0
2016-May-01 08:33N 49°20' W 123°30'5 5.4
2016-May-01 07:33N 49°18' W 123°23'4 4.1
2016-May-01 06:34N 49°15' W 123°17'5 4.7
2016-May-01 05:33N 49°11' W 123°18'4 4.2
2016-May-01 04:34N 49°07' W 123°17'6 6.0
2016-May-01 03:33N 49°06' W 123°08'7 7.3
2016-May-01 02:34N 49°09' W 122°58'0 0.4
2016-May-01 01:33N 49°09' W 122°57'2 1.5
2016-May-01 00:33N 49°10' W 122°55'0 0.0
2016-Apr-30 23:33N 49°10' W 122°55'0 0.0
2016-Apr-30 22:33N 49°10' W 122°55'0 0.0
2016-Apr-30 21:33N 49°10' W 122°55'0 0.0
2016-Apr-30 20:33N 49°10' W 122°55'0 0.0
2016-Apr-30 19:33N 49°10' W 122°55'1 1.1
2016-Apr-30 18:34N 49°11' W 122°55'3 3.1
2016-Apr-30 17:34N 49°09' W 122°59'3 3.4
2016-Apr-30 16:34N 49°08' W 123°03'3 3.5
2016-Apr-30 15:33N 49°07' W 123°08'3 3.0
2016-Apr-30 14:33N 49°07' W 123°12'3 2.8
2016-Apr-30 13:33N 49°07' W 123°17'3 3.1
2016-Apr-30 12:33N 49°08' W 123°21'5 5.4
2016-Apr-30 11:33N 49°14' W 123°21'5 5.4
2016-Apr-30 10:33N 49°19' W 123°20'2 1.5
2016-Apr-30 09:33N 49°19' W 123°23'5 5.0
2016-Apr-30 08:33N 49°20' W 123°30'6 6.1
2016-Apr-30 07:33N 49°22' W 123°39'6 6.1
2016-Apr-30 06:33N 49°24' W 123°48'6 5.7
2016-Apr-30 05:33N 49°26' W 123°56'6 5.9
2016-Apr-30 04:33N 49°30' W 124°03'7 6.6
2016-Apr-30 03:33N 49°35' W 124°09'7 6.7
2016-Apr-30 02:33N 49°40' W 124°16'7 6.7
2016-Apr-30 01:33N 49°44' W 124°24'7 6.6
2016-Apr-30 00:33N 49°48' W 124°32'4 4.2
2016-Apr-29 23:33N 49°52' W 124°34'0 0.1
2016-Apr-29 22:34N 49°52' W 124°34'1 1.0
2016-Apr-29 21:33N 49°51' W 124°33'4 4.0
2016-Apr-29 20:33N 49°47' W 124°31'4 4.0
2016-Apr-29 19:33N 49°45' W 124°26'4 3.6
2016-Apr-29 18:33N 49°43' W 124°21'4 3.6
2016-Apr-29 17:33N 49°41' W 124°17'4 3.9
2016-Apr-29 16:33N 49°38' W 124°13'4 4.3
2016-Apr-29 15:33N 49°35' W 124°09'4 4.4
2016-Apr-29 14:33N 49°31' W 124°05'5 4.7
2016-Apr-29 13:34N 49°28' W 123°60'5 4.7
2016-Apr-29 12:33N 49°25' W 123°54'4 4.5
2016-Apr-29 11:33N 49°23' W 123°48'4 4.3
2016-Apr-29 10:33N 49°21' W 123°41'4 4.3
2016-Apr-29 09:33N 49°21' W 123°35'5 4.6
2016-Apr-29 08:33N 49°19' W 123°28'5 5.2
2016-Apr-29 07:33N 49°17' W 123°21'2 2.4
2016-Apr-29 06:33N 49°16' W 123°18'2 1.9
2016-Apr-29 05:33N 49°15' W 123°15'0 0.3
2016-Apr-29 04:33N 49°15' W 123°16'4 3.6
2016-Apr-29 03:33N 49°16' W 123°21'6 5.8
2016-Apr-29 02:33N 49°19' W 123°29'6 5.8
2016-Apr-29 01:34N 49°21' W 123°37'7 7.4
2016-Apr-29 00:33N 49°24' W 123°47'8 7.9
2016-Apr-28 23:33N 49°27' W 123°58'8 7.8
2016-Apr-28 22:33N 49°33' W 124°07'8 7.5
2016-Apr-28 21:33N 49°38' W 124°15'8 7.7
2016-Apr-28 20:33N 49°44' W 124°23'7 7.5
2016-Apr-28 19:34N 49°48' W 124°33'4 3.9
2016-Apr-28 18:33N 49°52' W 124°34'2 2.4
2016-Apr-28 17:33N 49°50' W 124°33'4 4.3
2016-Apr-28 16:33N 49°46' W 124°29'5 4.6
2016-Apr-28 15:33N 49°44' W 124°23'5 4.8
2016-Apr-28 14:33N 49°41' W 124°17'5 4.8
2016-Apr-28 13:33N 49°37' W 124°12'5 4.8
2016-Apr-28 12:33N 49°34' W 124°08'5 4.7
2016-Apr-28 11:34N 49°30' W 124°03'5 4.8
2016-Apr-28 10:33N 49°27' W 123°57'4 4.4
2016-Apr-28 09:33N 49°25' W 123°51'5 4.5
2016-Apr-28 08:33N 49°23' W 123°45'4 4.4
2016-Apr-28 07:34N 49°22' W 123°39'5 4.7
2016-Apr-28 06:33N 49°20' W 123°32'5 4.8
2016-Apr-28 05:33N 49°18' W 123°25'5 4.6
2016-Apr-28 04:34N 49°16' W 123°19'1 1.0
2016-Apr-28 03:33N 49°15' W 123°18'3 2.7
2016-Apr-28 02:33N 49°12' W 123°18'4 4.0
2016-Apr-28 01:33N 49°08' W 123°19'3 2.5
2016-Apr-28 00:33N 49°08' W 123°15'6 6.3
2016-Apr-27 23:33N 49°07' W 123°05'6 5.7
2016-Apr-27 22:33N 49°09' W 122°57'0 0.2
2016-Apr-27 21:33N 49°09' W 122°57'3 3.2
2016-Apr-27 20:33N 49°12' W 122°55'0 0.0
2016-Apr-27 19:33N 49°12' W 122°55'0 0.0
2016-Apr-27 18:33N 49°12' W 122°55'0 0.0
2016-Apr-27 17:33N 49°12' W 122°55'0 0.0
2016-Apr-27 16:33N 49°12' W 122°55'2 1.8
2016-Apr-27 15:33N 49°10' W 122°56'4 4.4
2016-Apr-27 14:33N 49°09' W 123°02'0 0.0
2016-Apr-27 13:33N 49°09' W 123°02'3 3.5
2016-Apr-27 12:33N 49°09' W 122°57'3 3.1
2016-Apr-27 11:33N 49°09' W 123°01'4 3.7
2016-Apr-27 10:33N 49°07' W 123°06'3 3.1
2016-Apr-27 09:33N 49°07' W 123°11'3 3.2
2016-Apr-27 08:33N 49°07' W 123°16'3 2.5
2016-Apr-27 07:33N 49°09' W 123°19'6 6.3
2016-Apr-27 06:33N 49°15' W 123°18'4 3.6
2016-Apr-27 05:33N 49°17' W 123°23'6 5.7
2016-Apr-27 04:33N 49°19' W 123°31'6 5.6
2016-Apr-27 03:33N 49°21' W 123°39'5 5.4
2016-Apr-27 02:33N 49°23' W 123°46'5 5.0
2016-Apr-27 01:33N 49°25' W 123°53'5 4.8
2016-Apr-27 00:33N 49°28' W 123°60'5 4.6
2016-Apr-26 23:33N 49°31' W 124°04'5 4.7
2016-Apr-26 22:33N 49°35' W 124°09'5 4.8
2016-Apr-26 21:33N 49°38' W 124°14'5 4.6
2016-Apr-26 20:33N 49°42' W 124°19'5 4.6
2016-Apr-26 19:33N 49°45' W 124°24'5 4.7
2016-Apr-26 18:33N 49°47' W 124°31'5 4.7
2016-Apr-26 17:33N 49°51' W 124°33'1 1.0
2016-Apr-26 16:33N 49°52' W 124°34'3 2.9
2016-Apr-26 15:33N 49°49' W 124°33'5 5.0
2016-Apr-26 14:34N 49°46' W 124°27'5 5.2
2016-Apr-26 13:33N 49°43' W 124°20'5 5.4
2016-Apr-26 12:33N 49°39' W 124°15'5 5.4
2016-Apr-26 11:33N 49°35' W 124°09'5 5.1
2016-Apr-26 10:33N 49°31' W 124°04'6 5.7
2016-Apr-26 09:33N 49°27' W 123°58'6 5.6
2016-Apr-26 08:33N 49°25' W 123°50'5 5.3
2016-Apr-26 07:33N 49°23' W 123°43'5 5.1
2016-Apr-26 06:33N 49°21' W 123°35'6 5.8
2016-Apr-26 05:34N 49°19' W 123°27'6 5.6
2016-Apr-26 04:33N 49°16' W 123°20'4 3.6
2016-Apr-26 03:33N 49°13' W 123°18'7 6.6
2016-Apr-26 02:33N 49°06' W 123°19'5 5.4
2016-Apr-26 01:33N 49°07' W 123°11'6 6.4
2016-Apr-26 00:33N 49°09' W 123°02'2 2.2
2016-Apr-25 23:33N 49°09' W 122°58'7 6.9
2016-Apr-25 22:33N 49°06' W 123°08'7 6.5
2016-Apr-25 21:34N 49°06' W 123°18'8 8.4
2016-Apr-25 20:33N 49°15' W 123°18'8 8.3
2016-Apr-25 19:34N 49°19' W 123°06'0 0.0
2016-Apr-25 18:33N 49°19' W 123°06'0 0.0
2016-Apr-25 17:34N 49°19' W 123°06'0 0.0
2016-Apr-25 16:33N 49°19' W 123°06'0 0.0
2016-Apr-25 15:33N 49°19' W 123°06'  
Track history (hours):
 
Tides and Currents Weather Stations Pressure Air Temp Water Temp Dewpoint Dewpoint Depression Visibility Wind Speed Wind Dir Waves Ship Positions

Seaspan Champion

Last reported at 2016-May-04 18:34 UTC. Time now 2016-May-04 19:20 UTC.
Position N 49°11' W 122°55'.

Length 24 m; draft 5 m.

Type: Towing. MMSI: 316003661.

Date/timePositionNaut miles runAvg speedWind from/ knotsBaromVisibWave heightAir tempDewpointWater temp
2016-May-04 18:34N 49°11' W 122°55'1 1.0
2016-May-04 17:33N 49°12' W 122°55'2 1.6
2016-May-04 16:34N 49°10' W 122°55'0 0.0
2016-May-04 15:34N 49°10' W 122°55'0 0.0
2016-May-04 14:34N 49°10' W 122°55'0 0.0
2016-May-04 13:33N 49°10' W 122°55'0 0.0
2016-May-04 12:34N 49°10' W 122°55'0 0.0
2016-May-04 11:34N 49°10' W 122°55'0 0.0
2016-May-04 10:34N 49°10' W 122°55'0 0.0
2016-May-04 09:34N 49°10' W 122°55'0 0.0
2016-May-04 08:34N 49°10' W 122°55'2 2.0
2016-May-04 07:33N 49°09' W 122°58'6 5.7
2016-May-04 06:34N 49°07' W 123°06'6 5.9
2016-May-04 05:34N 49°07' W 123°15'3 3.4
2016-May-04 04:34N 49°10' W 123°19'6 6.0
2016-May-04 03:33N 49°16' W 123°19'4 4.5
2016-May-04 02:34N 49°17' W 123°26'3 3.5
2016-May-04 01:34N 49°19' W 123°31'8 7.3
2016-May-04 00:32N 49°21' W 123°41'8 8.0
2016-May-03 23:32N 49°25' W 123°52'7 7.6
2016-May-03 22:34N 49°28' W 124°02'8 7.7
2016-May-03 21:30N 49°35' W 124°10'7 7.6
2016-May-03 20:33N 49°40' W 124°18'7 7.1
2016-May-03 19:33N 49°45' W 124°25'7 6.8
2016-May-03 18:33N 49°50' W 124°33'3 2.7
2016-May-03 17:34N 49°52' W 124°34'2 1.6
2016-May-03 16:34N 49°51' W 124°33'4 3.8
2016-May-03 15:33N 49°47' W 124°31'4 4.1
2016-May-03 14:34N 49°45' W 124°25'4 4.2
2016-May-03 13:33N 49°43' W 124°20'4 3.7
2016-May-03 12:33N 49°40' W 124°16'5 4.6
2016-May-03 11:33N 49°37' W 124°11'5 4.9
2016-May-03 10:33N 49°33' W 124°06'5 5.2
2016-May-03 09:34N 49°29' W 124°01'5 5.4
2016-May-03 08:33N 49°26' W 123°54'5 5.3
2016-May-03 07:32N 49°23' W 123°47'5 4.9
2016-May-03 06:33N 49°21' W 123°40'5 4.8
2016-May-03 05:33N 49°18' W 123°35'5 4.7
2016-May-03 04:33N 49°15' W 123°29'5 4.9
2016-May-03 03:34N 49°11' W 123°25'5 4.5
2016-May-03 02:33N 49°08' W 123°20'3 3.3
2016-May-03 01:33N 49°08' W 123°15'7 6.6
2016-May-03 00:33N 49°07' W 123°05'6 6.1
2016-May-02 23:33N 49°10' W 122°57'3 2.9
2016-May-02 22:33N 49°12' W 122°54'1 1.2
2016-May-02 21:33N 49°11' W 122°55'1 0.8
2016-May-02 20:34N 49°10' W 122°55'0 0.0
2016-May-02 19:33N 49°10' W 122°55'2 2.0
2016-May-02 18:33N 49°09' W 122°58'8 7.7
2016-May-02 17:33N 49°07' W 123°09'2 1.7
2016-May-02 16:33N 49°07' W 123°11'0 0.0
2016-May-02 15:33N 49°07' W 123°11'0 0.0
2016-May-02 14:33N 49°07' W 123°11'5 5.2
2016-May-02 13:33N 49°08' W 123°04'4 3.9
2016-May-02 12:33N 49°10' W 122°58'0 0.0
2016-May-02 11:33N 49°10' W 122°58'0 0.0
2016-May-02 10:33N 49°10' W 122°58'0 0.0
2016-May-02 09:34N 49°10' W 122°58'3 2.5
2016-May-02 08:33N 49°09' W 123°02'7 6.9
2016-May-02 07:33N 49°07' W 123°12'5 4.8
2016-May-02 06:33N 49°08' W 123°19'8 7.7
2016-May-02 05:34N 49°16' W 123°18'4 3.8
2016-May-02 04:33N 49°17' W 123°24'7 7.2
2016-May-02 03:33N 49°20' W 123°34'8 7.5
2016-May-02 02:30N 49°23' W 123°45'7 7.2
2016-May-02 01:33N 49°26' W 123°55'7 7.4
2016-May-02 00:33N 49°30' W 124°05'8 8.0
2016-May-01 23:33N 49°36' W 124°12'8 7.9
2016-May-01 22:33N 49°42' W 124°20'8 7.6
2016-May-01 21:33N 49°47' W 124°29'6 6.0
2016-May-01 20:33N 49°52' W 124°34'1 1.2
2016-May-01 19:33N 49°51' W 124°33'5 4.8
2016-May-01 18:33N 49°47' W 124°30'5 4.9
2016-May-01 17:33N 49°44' W 124°23'5 5.0
2016-May-01 16:33N 49°41' W 124°17'5 4.8
2016-May-01 15:33N 49°38' W 124°12'5 4.7
2016-May-01 14:33N 49°34' W 124°07'5 4.7
2016-May-01 13:34N 49°30' W 124°03'5 4.9
2016-May-01 12:33N 49°27' W 123°57'5 4.8
2016-May-01 11:33N 49°25' W 123°51'5 4.8
2016-May-01 10:33N 49°24' W 123°44'5 4.6
2016-May-01 09:33N 49°22' W 123°37'5 5.0
2016-May-01 08:33N 49°20' W 123°30'5 5.4
2016-May-01 07:33N 49°18' W 123°23'4 4.1
2016-May-01 06:34N 49°15' W 123°17'5 4.7
2016-May-01 05:33N 49°11' W 123°18'4 4.2
2016-May-01 04:34N 49°07' W 123°17'6 6.0
2016-May-01 03:33N 49°06' W 123°08'7 7.3
2016-May-01 02:34N 49°09' W 122°58'0 0.4
2016-May-01 01:33N 49°09' W 122°57'2 1.5
2016-May-01 00:33N 49°10' W 122°55'0 0.0
2016-Apr-30 23:33N 49°10' W 122°55'0 0.0
2016-Apr-30 22:33N 49°10' W 122°55'0 0.0
2016-Apr-30 21:33N 49°10' W 122°55'0 0.0
2016-Apr-30 20:33N 49°10' W 122°55'0 0.0
2016-Apr-30 19:33N 49°10' W 122°55'1 1.1
2016-Apr-30 18:34N 49°11' W 122°55'3 3.1
2016-Apr-30 17:34N 49°09' W 122°59'3 3.4
2016-Apr-30 16:34N 49°08' W 123°03'3 3.5
2016-Apr-30 15:33N 49°07' W 123°08'3 3.0
2016-Apr-30 14:33N 49°07' W 123°12'3 2.8
2016-Apr-30 13:33N 49°07' W 123°17'3 3.1
2016-Apr-30 12:33N 49°08' W 123°21'5 5.4
2016-Apr-30 11:33N 49°14' W 123°21'5 5.4
2016-Apr-30 10:33N 49°19' W 123°20'2 1.5
2016-Apr-30 09:33N 49°19' W 123°23'5 5.0
2016-Apr-30 08:33N 49°20' W 123°30'6 6.1
2016-Apr-30 07:33N 49°22' W 123°39'6 6.1
2016-Apr-30 06:33N 49°24' W 123°48'6 5.7
2016-Apr-30 05:33N 49°26' W 123°56'6 5.9
2016-Apr-30 04:33N 49°30' W 124°03'7 6.6
2016-Apr-30 03:33N 49°35' W 124°09'7 6.7
2016-Apr-30 02:33N 49°40' W 124°16'7 6.7
2016-Apr-30 01:33N 49°44' W 124°24'7 6.6
2016-Apr-30 00:33N 49°48' W 124°32'4 4.2
2016-Apr-29 23:33N 49°52' W 124°34'0 0.1
2016-Apr-29 22:34N 49°52' W 124°34'1 1.0
2016-Apr-29 21:33N 49°51' W 124°33'4 4.0
2016-Apr-29 20:33N 49°47' W 124°31'4 4.0
2016-Apr-29 19:33N 49°45' W 124°26'4 3.6
2016-Apr-29 18:33N 49°43' W 124°21'4 3.6
2016-Apr-29 17:33N 49°41' W 124°17'4 3.9
2016-Apr-29 16:33N 49°38' W 124°13'4 4.3
2016-Apr-29 15:33N 49°35' W 124°09'4 4.4
2016-Apr-29 14:33N 49°31' W 124°05'5 4.7
2016-Apr-29 13:34N 49°28' W 123°60'5 4.7
2016-Apr-29 12:33N 49°25' W 123°54'4 4.5
2016-Apr-29 11:33N 49°23' W 123°48'4 4.3
2016-Apr-29 10:33N 49°21' W 123°41'4 4.3
2016-Apr-29 09:33N 49°21' W 123°35'5 4.6
2016-Apr-29 08:33N 49°19' W 123°28'5 5.2
2016-Apr-29 07:33N 49°17' W 123°21'2 2.4
2016-Apr-29 06:33N 49°16' W 123°18'2 1.9
2016-Apr-29 05:33N 49°15' W 123°15'0 0.3
2016-Apr-29 04:33N 49°15' W 123°16'4 3.6
2016-Apr-29 03:33N 49°16' W 123°21'6 5.8
2016-Apr-29 02:33N 49°19' W 123°29'6 5.8
2016-Apr-29 01:34N 49°21' W 123°37'7 7.4
2016-Apr-29 00:33N 49°24' W 123°47'8 7.9
2016-Apr-28 23:33N 49°27' W 123°58'8 7.8
2016-Apr-28 22:33N 49°33' W 124°07'8 7.5
2016-Apr-28 21:33N 49°38' W 124°15'8 7.7
2016-Apr-28 20:33N 49°44' W 124°23'7 7.5
2016-Apr-28 19:34N 49°48' W 124°33'4 3.9
2016-Apr-28 18:33N 49°52' W 124°34'2 2.4
2016-Apr-28 17:33N 49°50' W 124°33'4 4.3
2016-Apr-28 16:33N 49°46' W 124°29'5 4.6
2016-Apr-28 15:33N 49°44' W 124°23'5 4.8
2016-Apr-28 14:33N 49°41' W 124°17'5 4.8
2016-Apr-28 13:33N 49°37' W 124°12'5 4.8
2016-Apr-28 12:33N 49°34' W 124°08'5 4.7
2016-Apr-28 11:34N 49°30' W 124°03'5 4.8
2016-Apr-28 10:33N 49°27' W 123°57'4 4.4
2016-Apr-28 09:33N 49°25' W 123°51'5 4.5
2016-Apr-28 08:33N 49°23' W 123°45'4 4.4
2016-Apr-28 07:34N 49°22' W 123°39'5 4.7
2016-Apr-28 06:33N 49°20' W 123°32'5 4.8
2016-Apr-28 05:33N 49°18' W 123°25'5 4.6
2016-Apr-28 04:34N 49°16' W 123°19'1 1.0
2016-Apr-28 03:33N 49°15' W 123°18'3 2.7
2016-Apr-28 02:33N 49°12' W 123°18'4 4.0
2016-Apr-28 01:33N 49°08' W 123°19'3 2.5
2016-Apr-28 00:33N 49°08' W 123°15'6 6.3
2016-Apr-27 23:33N 49°07' W 123°05'6 5.7
2016-Apr-27 22:33N 49°09' W 122°57'0 0.2
2016-Apr-27 21:33N 49°09' W 122°57'3 3.2
2016-Apr-27 20:33N 49°12' W 122°55'0 0.0
2016-Apr-27 19:33N 49°12' W 122°55'0 0.0
2016-Apr-27 18:33N 49°12' W 122°55'0 0.0
2016-Apr-27 17:33N 49°12' W 122°55'0 0.0
2016-Apr-27 16:33N 49°12' W 122°55'2 1.8
2016-Apr-27 15:33N 49°10' W 122°56'4 4.4
2016-Apr-27 14:33N 49°09' W 123°02'0 0.0
2016-Apr-27 13:33N 49°09' W 123°02'3 3.5
2016-Apr-27 12:33N 49°09' W 122°57'3 3.1
2016-Apr-27 11:33N 49°09' W 123°01'4 3.7
2016-Apr-27 10:33N 49°07' W 123°06'3 3.1
2016-Apr-27 09:33N 49°07' W 123°11'3 3.2
2016-Apr-27 08:33N 49°07' W 123°16'3 2.5
2016-Apr-27 07:33N 49°09' W 123°19'6 6.3
2016-Apr-27 06:33N 49°15' W 123°18'4 3.6
2016-Apr-27 05:33N 49°17' W 123°23'6 5.7
2016-Apr-27 04:33N 49°19' W 123°31'6 5.6
2016-Apr-27 03:33N 49°21' W 123°39'5 5.4
2016-Apr-27 02:33N 49°23' W 123°46'5 5.0
2016-Apr-27 01:33N 49°25' W 123°53'5 4.8
2016-Apr-27 00:33N 49°28' W 123°60'5 4.6
2016-Apr-26 23:33N 49°31' W 124°04'5 4.7
2016-Apr-26 22:33N 49°35' W 124°09'5 4.8
2016-Apr-26 21:33N 49°38' W 124°14'5 4.6
2016-Apr-26 20:33N 49°42' W 124°19'5 4.6
2016-Apr-26 19:33N 49°45' W 124°24'5 4.7
2016-Apr-26 18:33N 49°47' W 124°31'5 4.7
2016-Apr-26 17:33N 49°51' W 124°33'1 1.0
2016-Apr-26 16:33N 49°52' W 124°34'3 2.9
2016-Apr-26 15:33N 49°49' W 124°33'5 5.0
2016-Apr-26 14:34N 49°46' W 124°27'5 5.2
2016-Apr-26 13:33N 49°43' W 124°20'5 5.4
2016-Apr-26 12:33N 49°39' W 124°15'5 5.4
2016-Apr-26 11:33N 49°35' W 124°09'5 5.1
2016-Apr-26 10:33N 49°31' W 124°04'6 5.7
2016-Apr-26 09:33N 49°27' W 123°58'6 5.6
2016-Apr-26 08:33N 49°25' W 123°50'5 5.3
2016-Apr-26 07:33N 49°23' W 123°43'5 5.1
2016-Apr-26 06:33N 49°21' W 123°35'6 5.8
2016-Apr-26 05:34N 49°19' W 123°27'6 5.6
2016-Apr-26 04:33N 49°16' W 123°20'4 3.6
2016-Apr-26 03:33N 49°13' W 123°18'7 6.6
2016-Apr-26 02:33N 49°06' W 123°19'5 5.4
2016-Apr-26 01:33N 49°07' W 123°11'6 6.4
2016-Apr-26 00:33N 49°09' W 123°02'2 2.2
2016-Apr-25 23:33N 49°09' W 122°58'7 6.9
2016-Apr-25 22:33N 49°06' W 123°08'7 6.5
2016-Apr-25 21:34N 49°06' W 123°18'8 8.4
2016-Apr-25 20:33N 49°15' W 123°18'8 8.3
2016-Apr-25 19:34N 49°19' W 123°06'0 0.0
2016-Apr-25 18:33N 49°19' W 123°06'0 0.0
2016-Apr-25 17:34N 49°19' W 123°06'0 0.0
2016-Apr-25 16:33N 49°19' W 123°06'0 0.0
2016-Apr-25 15:33N 49°19' W 123°06'  

Dump ship's entire track history